sensor_id;sensor_type;location;lat;lon;timestamp;temperature;humidity
67769;DHT22;54569;52.018;5.584;2023-05-02T00:01:49;12.90;68.00
67769;DHT22;54569;52.018;5.584;2023-05-02T00:04:16;12.80;68.10
67769;DHT22;54569;52.018;5.584;2023-05-02T00:06:42;12.80;68.20
67769;DHT22;54569;52.018;5.584;2023-05-02T00:09:08;12.70;68.30
67769;DHT22;54569;52.018;5.584;2023-05-02T00:11:33;12.60;68.60
67769;DHT22;54569;52.018;5.584;2023-05-02T00:13:59;12.60;68.80
67769;DHT22;54569;52.018;5.584;2023-05-02T00:16:25;12.60;68.90
67769;DHT22;54569;52.018;5.584;2023-05-02T00:18:50;12.60;68.80
67769;DHT22;54569;52.018;5.584;2023-05-02T00:21:16;12.60;69.00
67769;DHT22;54569;52.018;5.584;2023-05-02T00:23:42;12.60;69.10
67769;DHT22;54569;52.018;5.584;2023-05-02T00:26:08;12.60;69.10
67769;DHT22;54569;52.018;5.584;2023-05-02T00:28:35;12.60;69.20
67769;DHT22;54569;52.018;5.584;2023-05-02T00:31:03;12.60;69.20
67769;DHT22;54569;52.018;5.584;2023-05-02T00:33:29;12.60;69.10
67769;DHT22;54569;52.018;5.584;2023-05-02T00:35:55;12.60;69.20
67769;DHT22;54569;52.018;5.584;2023-05-02T00:38:20;12.60;69.20
67769;DHT22;54569;52.018;5.584;2023-05-02T00:40:48;12.60;69.20
67769;DHT22;54569;52.018;5.584;2023-05-02T00:43:15;12.60;69.10
67769;DHT22;54569;52.018;5.584;2023-05-02T00:45:42;12.60;69.10
67769;DHT22;54569;52.018;5.584;2023-05-02T00:48:09;12.60;69.10
67769;DHT22;54569;52.018;5.584;2023-05-02T00:50:37;12.60;69.60
67769;DHT22;54569;52.018;5.584;2023-05-02T00:53:06;12.60;69.20
67769;DHT22;54569;52.018;5.584;2023-05-02T00:55:32;12.60;69.30
67769;DHT22;54569;52.018;5.584;2023-05-02T00:57:59;12.60;69.20
67769;DHT22;54569;52.018;5.584;2023-05-02T01:00:32;12.70;69.20
67769;DHT22;54569;52.018;5.584;2023-05-02T01:03:15;12.70;69.30
67769;DHT22;54569;52.018;5.584;2023-05-02T01:11:43;12.70;69.30
67769;DHT22;54569;52.018;5.584;2023-05-02T01:14:11;12.70;69.60
67769;DHT22;54569;52.018;5.584;2023-05-02T01:16:38;12.70;69.30
67769;DHT22;54569;52.018;5.584;2023-05-02T01:19:12;12.70;69.30
67769;DHT22;54569;52.018;5.584;2023-05-02T01:21:41;12.60;69.50
67769;DHT22;54569;52.018;5.584;2023-05-02T01:24:18;12.60;69.60
67769;DHT22;54569;52.018;5.584;2023-05-02T01:27:17;12.60;70.00
67769;DHT22;54569;52.018;5.584;2023-05-02T01:29:49;12.60;70.70
67769;DHT22;54569;52.018;5.584;2023-05-02T01:32:15;12.60;69.80
67769;DHT22;54569;52.018;5.584;2023-05-02T01:34:43;12.50;69.90
67769;DHT22;54569;52.018;5.584;2023-05-02T01:37:11;12.60;70.10
67769;DHT22;54569;52.018;5.584;2023-05-02T01:39:39;12.60;70.10
67769;DHT22;54569;52.018;5.584;2023-05-02T01:42:05;12.60;70.20
67769;DHT22;54569;52.018;5.584;2023-05-02T01:44:32;12.60;70.30
67769;DHT22;54569;52.018;5.584;2023-05-02T01:47:01;12.60;70.30
67769;DHT22;54569;52.018;5.584;2023-05-02T01:49:30;12.60;70.40
67769;DHT22;54569;52.018;5.584;2023-05-02T01:52:02;12.60;70.50
67769;DHT22;54569;52.018;5.584;2023-05-02T01:54:30;12.60;70.60
67769;DHT22;54569;52.018;5.584;2023-05-02T01:56:58;12.50;70.60
67769;DHT22;54569;52.018;5.584;2023-05-02T01:59:27;12.50;70.60
67769;DHT22;54569;52.018;5.584;2023-05-02T02:01:55;12.50;70.80
67769;DHT22;54569;52.018;5.584;2023-05-02T02:04:22;12.40;70.80
67769;DHT22;54569;52.018;5.584;2023-05-02T02:06:56;12.40;70.70
67769;DHT22;54569;52.018;5.584;2023-05-02T02:09:24;12.40;70.80
67769;DHT22;54569;52.018;5.584;2023-05-02T02:12:01;12.40;70.80
67769;DHT22;54569;52.018;5.584;2023-05-02T02:14:36;12.50;71.00
67769;DHT22;54569;52.018;5.584;2023-05-02T02:17:10;12.50;70.70
67769;DHT22;54569;52.018;5.584;2023-05-02T02:19:36;12.40;70.60
67769;DHT22;54569;52.018;5.584;2023-05-02T02:22:04;12.40;73.60
67769;DHT22;54569;52.018;5.584;2023-05-02T02:24:31;12.30;70.50
67769;DHT22;54569;52.018;5.584;2023-05-02T02:26:57;12.20;70.50
67769;DHT22;54569;52.018;5.584;2023-05-02T02:29:23;12.20;70.60
67769;DHT22;54569;52.018;5.584;2023-05-02T02:31:49;12.10;70.60
67769;DHT22;54569;52.018;5.584;2023-05-02T02:34:15;12.10;70.60
67769;DHT22;54569;52.018;5.584;2023-05-02T02:39:34;12.10;70.60
67769;DHT22;54569;52.018;5.584;2023-05-02T02:42:43;12.10;70.50
67769;DHT22;54569;52.018;5.584;2023-05-02T02:47:50;12.00;70.50
67769;DHT22;54569;52.018;5.584;2023-05-02T02:50:35;12.00;70.60
67769;DHT22;54569;52.018;5.584;2023-05-02T02:53:08;12.00;71.30
67769;DHT22;54569;52.018;5.584;2023-05-02T02:55:37;12.00;70.30
67769;DHT22;54569;52.018;5.584;2023-05-02T03:00:53;12.00;70.90
67769;DHT22;54569;52.018;5.584;2023-05-02T03:03:21;12.00;70.20
67769;DHT22;54569;52.018;5.584;2023-05-02T03:05:54;11.90;70.70
67769;DHT22;54569;52.018;5.584;2023-05-02T03:08:23;11.90;70.30
67769;DHT22;54569;52.018;5.584;2023-05-02T03:10:49;11.80;70.30
67769;DHT22;54569;52.018;5.584;2023-05-02T03:13:15;11.80;70.40
67769;DHT22;54569;52.018;5.584;2023-05-02T03:18:26;11.80;70.50
67769;DHT22;54569;52.018;5.584;2023-05-02T03:20:53;11.70;70.00
67769;DHT22;54569;52.018;5.584;2023-05-02T03:23:19;11.80;70.10
67769;DHT22;54569;52.018;5.584;2023-05-02T03:25:45;11.80;70.00
67769;DHT22;54569;52.018;5.584;2023-05-02T03:28:17;11.80;69.90
67769;DHT22;54569;52.018;5.584;2023-05-02T03:30:46;11.70;69.80
67769;DHT22;54569;52.018;5.584;2023-05-02T03:33:12;11.70;69.80
67769;DHT22;54569;52.018;5.584;2023-05-02T03:35:41;11.70;69.70
67769;DHT22;54569;52.018;5.584;2023-05-02T03:38:07;11.70;69.60
67769;DHT22;54569;52.018;5.584;2023-05-02T03:40:33;11.70;69.50
67769;DHT22;54569;52.018;5.584;2023-05-02T03:42:59;11.70;69.50
67769;DHT22;54569;52.018;5.584;2023-05-02T03:45:30;11.70;69.40
67769;DHT22;54569;52.018;5.584;2023-05-02T03:47:56;11.60;69.30
67769;DHT22;54569;52.018;5.584;2023-05-02T03:50:22;11.70;69.30
67769;DHT22;54569;52.018;5.584;2023-05-02T03:52:50;11.60;69.20
67769;DHT22;54569;52.018;5.584;2023-05-02T03:55:20;11.70;69.10
67769;DHT22;54569;52.018;5.584;2023-05-02T03:57:47;11.60;69.00
67769;DHT22;54569;52.018;5.584;2023-05-02T04:00:13;11.70;69.00
67769;DHT22;54569;52.018;5.584;2023-05-02T04:02:45;11.60;69.10
67769;DHT22;54569;52.018;5.584;2023-05-02T04:05:15;11.60;69.20
67769;DHT22;54569;52.018;5.584;2023-05-02T04:07:41;11.60;69.30
67769;DHT22;54569;52.018;5.584;2023-05-02T04:10:07;11.60;69.30
67769;DHT22;54569;52.018;5.584;2023-05-02T04:12:41;11.60;69.30
67769;DHT22;54569;52.018;5.584;2023-05-02T04:15:09;11.60;71.00
67769;DHT22;54569;52.018;5.584;2023-05-02T04:17:35;11.60;69.10
67769;DHT22;54569;52.018;5.584;2023-05-02T04:20:01;11.60;69.10
67769;DHT22;54569;52.018;5.584;2023-05-02T04:22:28;11.60;69.00
67769;DHT22;54569;52.018;5.584;2023-05-02T04:24:59;11.60;69.10
67769;DHT22;54569;52.018;5.584;2023-05-02T04:27:26;11.60;69.20
67769;DHT22;54569;52.018;5.584;2023-05-02T04:29:52;11.60;69.30
67769;DHT22;54569;52.018;5.584;2023-05-02T04:32:18;11.60;69.30
67769;DHT22;54569;52.018;5.584;2023-05-02T04:34:45;11.60;69.20
67769;DHT22;54569;52.018;5.584;2023-05-02T04:37:12;11.60;69.20
67769;DHT22;54569;52.018;5.584;2023-05-02T04:39:40;11.60;69.20
67769;DHT22;54569;52.018;5.584;2023-05-02T04:42:11;11.60;69.20
67769;DHT22;54569;52.018;5.584;2023-05-02T04:44:45;11.60;69.20
67769;DHT22;54569;52.018;5.584;2023-05-02T04:47:10;11.60;69.00
67769;DHT22;54569;52.018;5.584;2023-05-02T04:49:37;11.60;69.00
67769;DHT22;54569;52.018;5.584;2023-05-02T04:52:03;11.60;68.90
67769;DHT22;54569;52.018;5.584;2023-05-02T04:54:32;11.60;68.90
67769;DHT22;54569;52.018;5.584;2023-05-02T04:56:57;11.60;68.90
67769;DHT22;54569;52.018;5.584;2023-05-02T04:59:24;11.60;68.80
67769;DHT22;54569;52.018;5.584;2023-05-02T05:01:50;11.60;68.80
67769;DHT22;54569;52.018;5.584;2023-05-02T05:04:16;11.60;68.80
67769;DHT22;54569;52.018;5.584;2023-05-02T05:06:42;11.60;68.80
67769;DHT22;54569;52.018;5.584;2023-05-02T05:09:08;11.60;68.70
67769;DHT22;54569;52.018;5.584;2023-05-02T05:11:35;11.50;68.60
67769;DHT22;54569;52.018;5.584;2023-05-02T05:14:02;11.50;68.60
67769;DHT22;54569;52.018;5.584;2023-05-02T05:16:30;11.40;68.60
67769;DHT22;54569;52.018;5.584;2023-05-02T05:18:56;11.40;68.70
67769;DHT22;54569;52.018;5.584;2023-05-02T05:21:22;11.30;68.80
67769;DHT22;54569;52.018;5.584;2023-05-02T05:23:48;11.30;68.60
67769;DHT22;54569;52.018;5.584;2023-05-02T05:26:20;11.30;68.50
67769;DHT22;54569;52.018;5.584;2023-05-02T05:28:47;11.20;68.50
67769;DHT22;54569;52.018;5.584;2023-05-02T05:31:15;11.20;68.50
67769;DHT22;54569;52.018;5.584;2023-05-02T05:33:44;11.20;68.50
67769;DHT22;54569;52.018;5.584;2023-05-02T05:36:13;11.20;68.50
67769;DHT22;54569;52.018;5.584;2023-05-02T05:38:39;11.20;68.30
67769;DHT22;54569;52.018;5.584;2023-05-02T05:41:07;11.20;68.30
67769;DHT22;54569;52.018;5.584;2023-05-02T05:43:35;11.20;67.90
67769;DHT22;54569;52.018;5.584;2023-05-02T05:46:01;11.20;67.70
67769;DHT22;54569;52.018;5.584;2023-05-02T05:48:30;11.20;67.60
67769;DHT22;54569;52.018;5.584;2023-05-02T05:51:02;11.20;67.50
67769;DHT22;54569;52.018;5.584;2023-05-02T05:53:28;11.30;67.40
67769;DHT22;54569;52.018;5.584;2023-05-02T05:55:55;11.20;67.30
67769;DHT22;54569;52.018;5.584;2023-05-02T05:58:22;11.30;67.10
67769;DHT22;54569;52.018;5.584;2023-05-02T06:00:49;11.20;67.00
67769;DHT22;54569;52.018;5.584;2023-05-02T06:03:15;11.20;67.00
67769;DHT22;54569;52.018;5.584;2023-05-02T06:05:41;11.20;66.80
67769;DHT22;54569;52.018;5.584;2023-05-02T06:08:11;11.20;66.80
67769;DHT22;54569;52.018;5.584;2023-05-02T06:10:37;11.20;66.70
67769;DHT22;54569;52.018;5.584;2023-05-02T06:13:03;11.20;66.70
67769;DHT22;54569;52.018;5.584;2023-05-02T06:15:35;11.20;66.60
67769;DHT22;54569;52.018;5.584;2023-05-02T06:18:02;11.20;66.60
67769;DHT22;54569;52.018;5.584;2023-05-02T06:20:28;11.30;66.60
67769;DHT22;54569;52.018;5.584;2023-05-02T06:22:54;11.20;66.40
67769;DHT22;54569;52.018;5.584;2023-05-02T06:25:20;11.20;66.30
67769;DHT22;54569;52.018;5.584;2023-05-02T06:27:46;11.20;66.20
67769;DHT22;54569;52.018;5.584;2023-05-02T06:30:12;11.20;66.10
67769;DHT22;54569;52.018;5.584;2023-05-02T06:32:38;11.30;66.10
67769;DHT22;54569;52.018;5.584;2023-05-02T06:35:03;11.30;65.80
67769;DHT22;54569;52.018;5.584;2023-05-02T06:37:33;11.40;65.60
67769;DHT22;54569;52.018;5.584;2023-05-02T06:40:02;11.40;65.20
67769;DHT22;54569;52.018;5.584;2023-05-02T06:42:27;11.50;65.00
67769;DHT22;54569;52.018;5.584;2023-05-02T06:44:54;11.50;64.90
67769;DHT22;54569;52.018;5.584;2023-05-02T06:47:20;11.60;64.80
67769;DHT22;54569;52.018;5.584;2023-05-02T06:49:50;11.70;64.60
67769;DHT22;54569;52.018;5.584;2023-05-02T06:52:16;11.70;64.10
67769;DHT22;54569;52.018;5.584;2023-05-02T06:54:41;11.80;64.00
67769;DHT22;54569;52.018;5.584;2023-05-02T06:57:07;11.80;63.90
67769;DHT22;54569;52.018;5.584;2023-05-02T06:59:33;11.90;63.60
67769;DHT22;54569;52.018;5.584;2023-05-02T07:01:59;12.10;63.30
67769;DHT22;54569;52.018;5.584;2023-05-02T07:04:25;12.20;63.20
67769;DHT22;54569;52.018;5.584;2023-05-02T07:06:51;12.30;63.00
67769;DHT22;54569;52.018;5.584;2023-05-02T07:09:16;12.30;62.70
67769;DHT22;54569;52.018;5.584;2023-05-02T07:11:42;12.30;62.80
67769;DHT22;54569;52.018;5.584;2023-05-02T07:14:08;12.40;62.90
67769;DHT22;54569;52.018;5.584;2023-05-02T07:16:34;12.50;62.80
67769;DHT22;54569;52.018;5.584;2023-05-02T07:18:59;12.50;62.80
67769;DHT22;54569;52.018;5.584;2023-05-02T07:21:26;12.50;62.60
67769;DHT22;54569;52.018;5.584;2023-05-02T07:23:51;12.50;62.60
67769;DHT22;54569;52.018;5.584;2023-05-02T07:26:19;12.50;62.70
67769;DHT22;54569;52.018;5.584;2023-05-02T07:28:45;12.50;62.60
67769;DHT22;54569;52.018;5.584;2023-05-02T07:31:11;12.60;62.80
67769;DHT22;54569;52.018;5.584;2023-05-02T07:33:37;12.50;62.80
67769;DHT22;54569;52.018;5.584;2023-05-02T07:36:02;12.40;63.00
67769;DHT22;54569;52.018;5.584;2023-05-02T07:38:28;12.20;63.20
67769;DHT22;54569;52.018;5.584;2023-05-02T07:40:57;12.00;63.80
67769;DHT22;54569;52.018;5.584;2023-05-02T07:43:23;11.90;64.00
67769;DHT22;54569;52.018;5.584;2023-05-02T07:45:49;11.80;64.20
67769;DHT22;54569;52.018;5.584;2023-05-02T07:48:14;11.70;64.70
67769;DHT22;54569;52.018;5.584;2023-05-02T07:50:40;11.60;64.90
67769;DHT22;54569;52.018;5.584;2023-05-02T07:53:06;11.60;65.00
67769;DHT22;54569;52.018;5.584;2023-05-02T07:55:32;11.60;64.90
67769;DHT22;54569;52.018;5.584;2023-05-02T07:57:58;11.60;64.80
67769;DHT22;54569;52.018;5.584;2023-05-02T08:00:25;11.70;64.60
67769;DHT22;54569;52.018;5.584;2023-05-02T08:02:50;11.90;64.40
67769;DHT22;54569;52.018;5.584;2023-05-02T08:05:16;12.10;63.70
67769;DHT22;54569;52.018;5.584;2023-05-02T08:07:42;12.40;62.90
67769;DHT22;54569;52.018;5.584;2023-05-02T08:10:08;12.70;62.10
67769;DHT22;54569;52.018;5.584;2023-05-02T08:12:38;12.90;61.80
67769;DHT22;54569;52.018;5.584;2023-05-02T08:15:06;13.10;61.30
67769;DHT22;54569;52.018;5.584;2023-05-02T08:17:32;13.30;60.90
67769;DHT22;54569;52.018;5.584;2023-05-02T08:19:58;13.70;60.50
67769;DHT22;54569;52.018;5.584;2023-05-02T08:22:24;13.80;59.90
67769;DHT22;54569;52.018;5.584;2023-05-02T08:24:49;13.80;59.90
67769;DHT22;54569;52.018;5.584;2023-05-02T08:27:15;14.00;59.80
67769;DHT22;54569;52.018;5.584;2023-05-02T08:29:41;14.40;59.30
67769;DHT22;54569;52.018;5.584;2023-05-02T08:32:06;14.70;58.70
67769;DHT22;54569;52.018;5.584;2023-05-02T08:34:32;15.10;58.00
67769;DHT22;54569;52.018;5.584;2023-05-02T08:36:58;15.30;57.30
67769;DHT22;54569;52.018;5.584;2023-05-02T08:39:24;15.40;57.20
67769;DHT22;54569;52.018;5.584;2023-05-02T08:41:49;15.40;57.10
67769;DHT22;54569;52.018;5.584;2023-05-02T08:44:16;15.40;57.20
67769;DHT22;54569;52.018;5.584;2023-05-02T08:46:42;15.20;57.60
67769;DHT22;54569;52.018;5.584;2023-05-02T08:49:10;15.00;58.00
67769;DHT22;54569;52.018;5.584;2023-05-02T08:51:36;14.70;58.50
67769;DHT22;54569;52.018;5.584;2023-05-02T08:54:03;14.60;58.80
67769;DHT22;54569;52.018;5.584;2023-05-02T08:56:32;14.40;58.90
67769;DHT22;54569;52.018;5.584;2023-05-02T08:58:57;14.30;59.10
67769;DHT22;54569;52.018;5.584;2023-05-02T09:01:29;14.30;59.20
67769;DHT22;54569;52.018;5.584;2023-05-02T09:03:55;14.40;58.60
67769;DHT22;54569;52.018;5.584;2023-05-02T09:06:25;14.50;58.00
67769;DHT22;54569;52.018;5.584;2023-05-02T09:08:51;14.50;57.80
67769;DHT22;54569;52.018;5.584;2023-05-02T09:11:18;14.60;57.80
67769;DHT22;54569;52.018;5.584;2023-05-02T09:13:48;14.70;57.30
67769;DHT22;54569;52.018;5.584;2023-05-02T09:16:23;14.90;56.80
67769;DHT22;54569;52.018;5.584;2023-05-02T09:18:57;15.20;56.30
67769;DHT22;54569;52.018;5.584;2023-05-02T09:21:25;15.40;56.10
67769;DHT22;54569;52.018;5.584;2023-05-02T09:23:55;15.40;55.70
67769;DHT22;54569;52.018;5.584;2023-05-02T09:26:23;15.50;55.50
67769;DHT22;54569;52.018;5.584;2023-05-02T09:28:55;15.50;56.00
67769;DHT22;54569;52.018;5.584;2023-05-02T09:31:26;15.50;55.30
67769;DHT22;54569;52.018;5.584;2023-05-02T09:33:53;15.50;55.50
67769;DHT22;54569;52.018;5.584;2023-05-02T09:36:20;15.60;55.10
67769;DHT22;54569;52.018;5.584;2023-05-02T09:38:47;15.60;55.20
67769;DHT22;54569;52.018;5.584;2023-05-02T09:41:14;15.60;55.20
67769;DHT22;54569;52.018;5.584;2023-05-02T09:43:40;15.70;54.80
67769;DHT22;54569;52.018;5.584;2023-05-02T09:46:07;15.50;54.90
67769;DHT22;54569;52.018;5.584;2023-05-02T09:48:54;15.50;54.80
67769;DHT22;54569;52.018;5.584;2023-05-02T09:51:26;15.70;53.40
67769;DHT22;54569;52.018;5.584;2023-05-02T09:53:51;15.60;54.40
67769;DHT22;54569;52.018;5.584;2023-05-02T09:56:17;15.60;54.60
67769;DHT22;54569;52.018;5.584;2023-05-02T09:58:43;15.80;54.40
67769;DHT22;54569;52.018;5.584;2023-05-02T10:01:19;16.00;54.10
67769;DHT22;54569;52.018;5.584;2023-05-02T10:03:48;16.00;53.10
67769;DHT22;54569;52.018;5.584;2023-05-02T10:06:14;15.80;53.80
67769;DHT22;54569;52.018;5.584;2023-05-02T10:08:41;15.80;54.00
67769;DHT22;54569;52.018;5.584;2023-05-02T10:11:11;15.90;53.70
67769;DHT22;54569;52.018;5.584;2023-05-02T10:13:37;16.00;53.30
67769;DHT22;54569;52.018;5.584;2023-05-02T10:16:05;16.30;52.90
67769;DHT22;54569;52.018;5.584;2023-05-02T10:18:47;16.70;52.40
67769;DHT22;54569;52.018;5.584;2023-05-02T10:21:23;16.80;51.60
67769;DHT22;54569;52.018;5.584;2023-05-02T10:23:49;17.00;52.00
67769;DHT22;54569;52.018;5.584;2023-05-02T10:26:17;17.20;51.70
67769;DHT22;54569;52.018;5.584;2023-05-02T10:28:45;17.40;51.30
67769;DHT22;54569;52.018;5.584;2023-05-02T10:31:12;17.60;51.20
67769;DHT22;54569;52.018;5.584;2023-05-02T10:33:39;17.90;50.50
67769;DHT22;54569;52.018;5.584;2023-05-02T10:36:10;18.00;50.50
67769;DHT22;54569;52.018;5.584;2023-05-02T10:38:39;18.20;50.00
67769;DHT22;54569;52.018;5.584;2023-05-02T10:41:12;18.20;50.80
67769;DHT22;54569;52.018;5.584;2023-05-02T10:43:39;18.20;50.40
67769;DHT22;54569;52.018;5.584;2023-05-02T10:46:28;18.20;51.20
67769;DHT22;54569;52.018;5.584;2023-05-02T10:49:06;18.30;47.00
67769;DHT22;54569;52.018;5.584;2023-05-02T10:51:33;18.30;48.40
67769;DHT22;54569;52.018;5.584;2023-05-02T10:59:41;18.30;48.10
67769;DHT22;54569;52.018;5.584;2023-05-02T11:07:27;18.20;49.60
67769;DHT22;54569;52.018;5.584;2023-05-02T11:09:59;18.50;50.70
67769;DHT22;54569;52.018;5.584;2023-05-02T11:12:43;18.70;50.30
67769;DHT22;54569;52.018;5.584;2023-05-02T11:15:13;19.20;49.20
67769;DHT22;54569;52.018;5.584;2023-05-02T11:18:01;19.50;49.70
67769;DHT22;54569;52.018;5.584;2023-05-02T11:20:28;19.80;45.40
67769;DHT22;54569;52.018;5.584;2023-05-02T11:22:55;19.70;49.40
67769;DHT22;54569;52.018;5.584;2023-05-02T11:25:32;19.80;49.30
67769;DHT22;54569;52.018;5.584;2023-05-02T11:27:59;20.10;48.00
67769;DHT22;54569;52.018;5.584;2023-05-02T11:30:44;20.20;48.90
67769;DHT22;54569;52.018;5.584;2023-05-02T11:33:11;20.40;44.70
67769;DHT22;54569;52.018;5.584;2023-05-02T11:35:41;20.60;49.60
67769;DHT22;54569;52.018;5.584;2023-05-02T11:38:11;20.70;49.50
67769;DHT22;54569;52.018;5.584;2023-05-02T11:40:37;20.90;49.30
67769;DHT22;54569;52.018;5.584;2023-05-02T11:43:13;21.10;49.70
67769;DHT22;54569;52.018;5.584;2023-05-02T11:45:40;21.20;46.90
67769;DHT22;54569;52.018;5.584;2023-05-02T11:48:07;21.30;49.70
67769;DHT22;54569;52.018;5.584;2023-05-02T11:50:44;21.50;49.90
67769;DHT22;54569;52.018;5.584;2023-05-02T11:53:15;22.10;45.70
67769;DHT22;54569;52.018;5.584;2023-05-02T11:55:52;22.20;47.80
67769;DHT22;54569;52.018;5.584;2023-05-02T11:58:20;22.30;47.30
67769;DHT22;54569;52.018;5.584;2023-05-02T12:00:46;22.30;47.90
67769;DHT22;54569;52.018;5.584;2023-05-02T12:03:30;22.20;48.10
67769;DHT22;54569;52.018;5.584;2023-05-02T12:05:57;22.40;45.30
67769;DHT22;54569;52.018;5.584;2023-05-02T12:08:33;22.60;46.90
67769;DHT22;54569;52.018;5.584;2023-05-02T12:10:58;22.30;46.80
67769;DHT22;54569;52.018;5.584;2023-05-02T12:13:25;21.80;47.00
67769;DHT22;54569;52.018;5.584;2023-05-02T12:15:52;21.30;47.00
67769;DHT22;54569;52.018;5.584;2023-05-02T12:18:19;20.90;47.30
67769;DHT22;54569;52.018;5.584;2023-05-02T12:20:49;20.60;47.40
67769;DHT22;54569;52.018;5.584;2023-05-02T12:23:17;20.30;47.80
67769;DHT22;54569;52.018;5.584;2023-05-02T12:25:43;20.10;47.50
67769;DHT22;54569;52.018;5.584;2023-05-02T12:28:09;19.70;48.40
67769;DHT22;54569;52.018;5.584;2023-05-02T12:30:37;19.50;48.00
67769;DHT22;54569;52.018;5.584;2023-05-02T12:33:03;19.30;48.20
67769;DHT22;54569;52.018;5.584;2023-05-02T12:35:31;19.20;48.10
67769;DHT22;54569;52.018;5.584;2023-05-02T12:38:17;19.00;48.20
67769;DHT22;54569;52.018;5.584;2023-05-02T12:40:53;18.90;46.50
67769;DHT22;54569;52.018;5.584;2023-05-02T12:43:22;19.00;47.80
67769;DHT22;54569;52.018;5.584;2023-05-02T12:45:48;19.00;47.40
67769;DHT22;54569;52.018;5.584;2023-05-02T12:48:27;18.90;47.30
67769;DHT22;54569;52.018;5.584;2023-05-02T12:50:53;18.80;46.30
67769;DHT22;54569;52.018;5.584;2023-05-02T12:53:39;18.80;46.80
67769;DHT22;54569;52.018;5.584;2023-05-02T12:56:06;18.80;44.00
67769;DHT22;54569;52.018;5.584;2023-05-02T12:58:43;18.80;47.00
67769;DHT22;54569;52.018;5.584;2023-05-02T13:01:09;18.70;45.50
67769;DHT22;54569;52.018;5.584;2023-05-02T13:03:35;18.60;46.90
67769;DHT22;54569;52.018;5.584;2023-05-02T13:06:01;18.60;46.70
67769;DHT22;54569;52.018;5.584;2023-05-02T13:08:27;18.50;46.70
67769;DHT22;54569;52.018;5.584;2023-05-02T13:10:52;18.40;46.30
67769;DHT22;54569;52.018;5.584;2023-05-02T13:13:18;18.20;46.80
67769;DHT22;54569;52.018;5.584;2023-05-02T13:15:44;18.20;46.90
67769;DHT22;54569;52.018;5.584;2023-05-02T13:18:10;18.10;46.70
67769;DHT22;54569;52.018;5.584;2023-05-02T13:20:35;18.00;46.80
67769;DHT22;54569;52.018;5.584;2023-05-02T13:23:01;18.00;46.30
67769;DHT22;54569;52.018;5.584;2023-05-02T13:25:27;17.80;46.70
67769;DHT22;54569;52.018;5.584;2023-05-02T13:27:52;17.70;46.70
67769;DHT22;54569;52.018;5.584;2023-05-02T13:30:18;17.70;46.60
67769;DHT22;54569;52.018;5.584;2023-05-02T13:32:44;17.60;46.90
67769;DHT22;54569;52.018;5.584;2023-05-02T13:35:10;17.60;46.80
67769;DHT22;54569;52.018;5.584;2023-05-02T13:37:39;17.60;46.70
67769;DHT22;54569;52.018;5.584;2023-05-02T13:40:06;17.60;46.60
67769;DHT22;54569;52.018;5.584;2023-05-02T13:42:32;17.50;46.60
67769;DHT22;54569;52.018;5.584;2023-05-02T13:44:58;17.40;46.60
67769;DHT22;54569;52.018;5.584;2023-05-02T13:47:24;17.30;46.90
67769;DHT22;54569;52.018;5.584;2023-05-02T13:49:50;17.30;46.90
67769;DHT22;54569;52.018;5.584;2023-05-02T13:52:16;17.20;47.00
67769;DHT22;54569;52.018;5.584;2023-05-02T13:54:42;17.20;47.00
67769;DHT22;54569;52.018;5.584;2023-05-02T13:57:08;17.20;46.60
67769;DHT22;54569;52.018;5.584;2023-05-02T13:59:33;17.10;46.80
67769;DHT22;54569;52.018;5.584;2023-05-02T14:01:59;17.10;46.80
67769;DHT22;54569;52.018;5.584;2023-05-02T14:04:25;17.20;46.80
67769;DHT22;54569;52.018;5.584;2023-05-02T14:06:50;17.30;46.50
67769;DHT22;54569;52.018;5.584;2023-05-02T14:09:16;17.40;46.40
67769;DHT22;54569;52.018;5.584;2023-05-02T14:11:42;17.30;46.50
67769;DHT22;54569;52.018;5.584;2023-05-02T14:14:09;17.30;46.40
67769;DHT22;54569;52.018;5.584;2023-05-02T14:16:37;17.20;46.20
67769;DHT22;54569;52.018;5.584;2023-05-02T14:19:03;17.10;46.60
67769;DHT22;54569;52.018;5.584;2023-05-02T14:21:29;16.90;46.70
67769;DHT22;54569;52.018;5.584;2023-05-02T14:23:56;16.70;46.80
67769;DHT22;54569;52.018;5.584;2023-05-02T14:26:22;16.50;47.10
67769;DHT22;54569;52.018;5.584;2023-05-02T14:28:47;16.50;47.20
67769;DHT22;54569;52.018;5.584;2023-05-02T14:31:13;16.50;47.40
67769;DHT22;54569;52.018;5.584;2023-05-02T14:33:39;16.50;47.50
67769;DHT22;54569;52.018;5.584;2023-05-02T14:36:05;16.40;47.20
67769;DHT22;54569;52.018;5.584;2023-05-02T14:38:31;16.20;47.50
67769;DHT22;54569;52.018;5.584;2023-05-02T14:40:56;16.30;47.50
67769;DHT22;54569;52.018;5.584;2023-05-02T14:43:22;16.30;47.50
67769;DHT22;54569;52.018;5.584;2023-05-02T14:45:48;16.30;47.50
67769;DHT22;54569;52.018;5.584;2023-05-02T14:48:13;16.30;47.30
67769;DHT22;54569;52.018;5.584;2023-05-02T14:50:42;16.30;47.20
67769;DHT22;54569;52.018;5.584;2023-05-02T14:53:08;16.40;47.30
67769;DHT22;54569;52.018;5.584;2023-05-02T14:55:37;16.40;47.00
67769;DHT22;54569;52.018;5.584;2023-05-02T14:58:07;16.30;47.20
67769;DHT22;54569;52.018;5.584;2023-05-02T15:00:37;16.30;47.30
67769;DHT22;54569;52.018;5.584;2023-05-02T15:03:06;16.30;47.50
67769;DHT22;54569;52.018;5.584;2023-05-02T15:05:35;16.30;47.50
67769;DHT22;54569;52.018;5.584;2023-05-02T15:08:01;16.30;47.40
67769;DHT22;54569;52.018;5.584;2023-05-02T15:10:26;16.30;47.40
67769;DHT22;54569;52.018;5.584;2023-05-02T15:12:52;16.30;47.20
67769;DHT22;54569;52.018;5.584;2023-05-02T15:15:18;16.30;47.20
67769;DHT22;54569;52.018;5.584;2023-05-02T15:17:49;16.20;47.50
67769;DHT22;54569;52.018;5.584;2023-05-02T15:20:15;16.20;47.40
67769;DHT22;54569;52.018;5.584;2023-05-02T15:22:41;16.10;47.40
67769;DHT22;54569;52.018;5.584;2023-05-02T15:25:08;16.00;47.20
67769;DHT22;54569;52.018;5.584;2023-05-02T15:27:33;15.90;47.20
67769;DHT22;54569;52.018;5.584;2023-05-02T15:29:59;15.80;47.50
67769;DHT22;54569;52.018;5.584;2023-05-02T15:32:27;15.80;47.50
67769;DHT22;54569;52.018;5.584;2023-05-02T15:34:53;15.80;47.50
67769;DHT22;54569;52.018;5.584;2023-05-02T15:37:19;15.80;47.30
67769;DHT22;54569;52.018;5.584;2023-05-02T15:39:45;15.80;47.60
67769;DHT22;54569;52.018;5.584;2023-05-02T15:42:11;15.70;47.80
67769;DHT22;54569;52.018;5.584;2023-05-02T15:44:37;15.70;47.60
67769;DHT22;54569;52.018;5.584;2023-05-02T15:47:03;15.80;47.30
67769;DHT22;54569;52.018;5.584;2023-05-02T15:49:28;15.70;47.20
67769;DHT22;54569;52.018;5.584;2023-05-02T15:52:01;15.60;47.20
67769;DHT22;54569;52.018;5.584;2023-05-02T15:54:27;15.60;47.00
67769;DHT22;54569;52.018;5.584;2023-05-02T15:56:53;15.60;47.50
67769;DHT22;54569;52.018;5.584;2023-05-02T15:59:18;15.50;47.50
67769;DHT22;54569;52.018;5.584;2023-05-02T16:01:44;15.50;47.60
67769;DHT22;54569;52.018;5.584;2023-05-02T16:04:10;15.50;47.70